sensor_id;sensor_type;location;lat;lon;timestamp;temperature;humidity
3976;DHT22;2002;48.812;9.180;2022-12-18T00:02:14;16.40;1.00
3976;DHT22;2002;48.812;9.180;2022-12-18T00:04:39;16.30;1.00
3976;DHT22;2002;48.812;9.180;2022-12-18T00:07:05;16.30;1.00
3976;DHT22;2002;48.812;9.180;2022-12-18T00:09:30;16.20;1.00
3976;DHT22;2002;48.812;9.180;2022-12-18T00:11:56;16.10;1.00
3976;DHT22;2002;48.812;9.180;2022-12-18T00:14:21;16.00;1.00
3976;DHT22;2002;48.812;9.180;2022-12-18T00:16:47;16.00;1.00
3976;DHT22;2002;48.812;9.180;2022-12-18T00:19:13;15.90;1.00
3976;DHT22;2002;48.812;9.180;2022-12-18T00:21:39;15.80;1.00
3976;DHT22;2002;48.812;9.180;2022-12-18T00:24:06;15.70;1.00
3976;DHT22;2002;48.812;9.180;2022-12-18T00:26:33;15.70;1.00
3976;DHT22;2002;48.812;9.180;2022-12-18T00:29:01;15.60;1.00
3976;DHT22;2002;48.812;9.180;2022-12-18T00:31:27;15.60;1.00
3976;DHT22;2002;48.812;9.180;2022-12-18T00:33:56;15.60;1.00
3976;DHT22;2002;48.812;9.180;2022-12-18T00:36:24;15.60;1.00
3976;DHT22;2002;48.812;9.180;2022-12-18T00:38:51;15.50;1.00
3976;DHT22;2002;48.812;9.180;2022-12-18T00:41:18;15.50;1.00
3976;DHT22;2002;48.812;9.180;2022-12-18T00:44:03;15.50;1.00
3976;DHT22;2002;48.812;9.180;2022-12-18T00:46:29;15.40;1.00
3976;DHT22;2002;48.812;9.180;2022-12-18T00:48:55;15.40;1.00
3976;DHT22;2002;48.812;9.180;2022-12-18T00:51:20;15.40;1.00
3976;DHT22;2002;48.812;9.180;2022-12-18T00:53:46;15.50;1.00
3976;DHT22;2002;48.812;9.180;2022-12-18T00:56:11;15.40;1.00
3976;DHT22;2002;48.812;9.180;2022-12-18T00:58:37;15.40;1.00
3976;DHT22;2002;48.812;9.180;2022-12-18T01:01:06;15.30;1.00
3976;DHT22;2002;48.812;9.180;2022-12-18T01:03:32;15.30;1.00
3976;DHT22;2002;48.812;9.180;2022-12-18T01:05:57;15.40;1.00
3976;DHT22;2002;48.812;9.180;2022-12-18T01:08:23;15.30;1.00
3976;DHT22;2002;48.812;9.180;2022-12-18T01:10:50;15.30;1.00
3976;DHT22;2002;48.812;9.180;2022-12-18T01:13:16;15.30;1.00
3976;DHT22;2002;48.812;9.180;2022-12-18T01:15:48;15.30;1.00
3976;DHT22;2002;48.812;9.180;2022-12-18T01:18:14;15.70;1.00
3976;DHT22;2002;48.812;9.180;2022-12-18T01:20:40;16.50;1.00
3976;DHT22;2002;48.812;9.180;2022-12-18T01:23:06;17.00;1.00
3976;DHT22;2002;48.812;9.180;2022-12-18T01:25:32;17.20;1.00
3976;DHT22;2002;48.812;9.180;2022-12-18T01:27:58;17.10;1.00
3976;DHT22;2002;48.812;9.180;2022-12-18T01:30:24;17.10;1.00
3976;DHT22;2002;48.812;9.180;2022-12-18T01:32:49;17.00;1.00
3976;DHT22;2002;48.812;9.180;2022-12-18T01:35:15;16.90;1.00
3976;DHT22;2002;48.812;9.180;2022-12-18T01:37:40;16.80;1.00
3976;DHT22;2002;48.812;9.180;2022-12-18T01:40:06;16.70;1.00
3976;DHT22;2002;48.812;9.180;2022-12-18T01:42:32;16.60;1.00
3976;DHT22;2002;48.812;9.180;2022-12-18T01:47:53;16.40;1.00
3976;DHT22;2002;48.812;9.180;2022-12-18T01:50:40;16.30;1.00
3976;DHT22;2002;48.812;9.180;2022-12-18T01:53:14;16.20;1.00
3976;DHT22;2002;48.812;9.180;2022-12-18T01:55:43;16.10;1.00
3976;DHT22;2002;48.812;9.180;2022-12-18T01:58:10;16.00;1.00
3976;DHT22;2002;48.812;9.180;2022-12-18T02:00:36;16.00;1.00
3976;DHT22;2002;48.812;9.180;2022-12-18T02:03:01;15.90;1.00
3976;DHT22;2002;48.812;9.180;2022-12-18T02:05:54;15.80;1.00
3976;DHT22;2002;48.812;9.180;2022-12-18T02:08:40;15.80;1.00
3976;DHT22;2002;48.812;9.180;2022-12-18T02:11:33;15.70;1.00
3976;DHT22;2002;48.812;9.180;2022-12-18T02:25:00;15.50;1.00
3976;DHT22;2002;48.812;9.180;2022-12-18T02:27:28;15.40;1.00
3976;DHT22;2002;48.812;9.180;2022-12-18T02:29:55;15.40;1.00
3976;DHT22;2002;48.812;9.180;2022-12-18T02:32:34;15.40;1.00
3976;DHT22;2002;48.812;9.180;2022-12-18T02:35:04;15.40;1.00
3976;DHT22;2002;48.812;9.180;2022-12-18T02:37:30;15.40;1.00
3976;DHT22;2002;48.812;9.180;2022-12-18T02:39:58;15.40;1.00
3976;DHT22;2002;48.812;9.180;2022-12-18T02:42:25;15.40;1.00
3976;DHT22;2002;48.812;9.180;2022-12-18T02:44:52;15.30;1.00
3976;DHT22;2002;48.812;9.180;2022-12-18T02:47:22;15.30;1.00
3976;DHT22;2002;48.812;9.180;2022-12-18T02:58:34;15.30;1.00
3976;DHT22;2002;48.812;9.180;2022-12-18T03:01:07;15.40;1.00
3976;DHT22;2002;48.812;9.180;2022-12-18T03:06:35;16.70;1.00
3976;DHT22;2002;48.812;9.180;2022-12-18T03:09:08;17.10;1.00
3976;DHT22;2002;48.812;9.180;2022-12-18T03:11:38;17.20;1.00
3976;DHT22;2002;48.812;9.180;2022-12-18T03:14:23;17.10;1.00
3976;DHT22;2002;48.812;9.180;2022-12-18T03:16:54;17.00;1.00
3976;DHT22;2002;48.812;9.180;2022-12-18T03:19:22;16.90;1.00
3976;DHT22;2002;48.812;9.180;2022-12-18T03:21:56;16.80;1.00
3976;DHT22;2002;48.812;9.180;2022-12-18T03:24:23;16.70;1.00
3976;DHT22;2002;48.812;9.180;2022-12-18T03:26:53;16.60;1.00
3976;DHT22;2002;48.812;9.180;2022-12-18T03:29:34;16.50;1.00
3976;DHT22;2002;48.812;9.180;2022-12-18T03:32:31;16.40;1.00
3976;DHT22;2002;48.812;9.180;2022-12-18T03:35:02;16.30;1.00
3976;DHT22;2002;48.812;9.180;2022-12-18T03:37:28;16.20;1.00
3976;DHT22;2002;48.812;9.180;2022-12-18T03:39:54;16.10;1.00
3976;DHT22;2002;48.812;9.180;2022-12-18T03:42:27;16.10;1.00
3976;DHT22;2002;48.812;9.180;2022-12-18T03:45:12;16.00;1.00
3976;DHT22;2002;48.812;9.180;2022-12-18T03:56:06;15.70;1.00
3976;DHT22;2002;48.812;9.180;2022-12-18T03:58:33;15.70;1.00
3976;DHT22;2002;48.812;9.180;2022-12-18T04:01:02;15.60;1.00
3976;DHT22;2002;48.812;9.180;2022-12-18T04:03:29;15.50;1.00
3976;DHT22;2002;48.812;9.180;2022-12-18T04:05:59;15.50;1.00
3976;DHT22;2002;48.812;9.180;2022-12-18T04:08:25;15.50;1.00
3976;DHT22;2002;48.812;9.180;2022-12-18T04:10:51;15.40;1.00
3976;DHT22;2002;48.812;9.180;2022-12-18T04:13:34;15.40;1.00
3976;DHT22;2002;48.812;9.180;2022-12-18T04:16:00;15.40;1.00
3976;DHT22;2002;48.812;9.180;2022-12-18T04:18:26;15.40;1.00
3976;DHT22;2002;48.812;9.180;2022-12-18T04:20:52;15.30;1.00
3976;DHT22;2002;48.812;9.180;2022-12-18T04:23:17;15.40;1.00
3976;DHT22;2002;48.812;9.180;2022-12-18T04:25:43;15.30;1.00
3976;DHT22;2002;48.812;9.180;2022-12-18T04:28:09;15.30;1.00
3976;DHT22;2002;48.812;9.180;2022-12-18T04:30:34;15.30;1.00
3976;DHT22;2002;48.812;9.180;2022-12-18T04:33:00;15.30;1.00
3976;DHT22;2002;48.812;9.180;2022-12-18T04:35:25;15.30;1.00
3976;DHT22;2002;48.812;9.180;2022-12-18T04:37:51;15.30;1.00
3976;DHT22;2002;48.812;9.180;2022-12-18T04:40:16;15.30;1.00
3976;DHT22;2002;48.812;9.180;2022-12-18T04:42:42;15.30;1.00
3976;DHT22;2002;48.812;9.180;2022-12-18T04:45:08;15.40;1.00
3976;DHT22;2002;48.812;9.180;2022-12-18T04:47:34;16.10;1.00
3976;DHT22;2002;48.812;9.180;2022-12-18T04:49:59;16.70;1.00
3976;DHT22;2002;48.812;9.180;2022-12-18T04:52:25;17.10;1.00
3976;DHT22;2002;48.812;9.180;2022-12-18T04:54:50;17.10;1.00
3976;DHT22;2002;48.812;9.180;2022-12-18T04:57:16;17.10;1.00
3976;DHT22;2002;48.812;9.180;2022-12-18T04:59:43;17.00;1.00
3976;DHT22;2002;48.812;9.180;2022-12-18T05:02:09;17.00;1.00
3976;DHT22;2002;48.812;9.180;2022-12-18T05:04:35;16.80;1.00
3976;DHT22;2002;48.812;9.180;2022-12-18T05:07:00;16.70;1.00
3976;DHT22;2002;48.812;9.180;2022-12-18T05:09:26;16.60;1.00
3976;DHT22;2002;48.812;9.180;2022-12-18T05:11:51;16.50;1.00
3976;DHT22;2002;48.812;9.180;2022-12-18T05:14:17;16.50;1.00
3976;DHT22;2002;48.812;9.180;2022-12-18T05:16:42;16.40;1.00
3976;DHT22;2002;48.812;9.180;2022-12-18T05:19:08;16.20;1.00
3976;DHT22;2002;48.812;9.180;2022-12-18T05:21:34;16.20;1.00
3976;DHT22;2002;48.812;9.180;2022-12-18T05:23:59;16.10;1.00
3976;DHT22;2002;48.812;9.180;2022-12-18T05:26:25;16.10;1.00
3976;DHT22;2002;48.812;9.180;2022-12-18T05:28:50;16.00;1.00
3976;DHT22;2002;48.812;9.180;2022-12-18T05:31:16;15.90;1.00
3976;DHT22;2002;48.812;9.180;2022-12-18T05:33:41;15.90;1.00
3976;DHT22;2002;48.812;9.180;2022-12-18T05:36:08;15.80;1.00
3976;DHT22;2002;48.812;9.180;2022-12-18T05:38:36;15.80;1.00
3976;DHT22;2002;48.812;9.180;2022-12-18T05:41:02;15.80;1.00
3976;DHT22;2002;48.812;9.180;2022-12-18T05:43:28;15.60;1.00
3976;DHT22;2002;48.812;9.180;2022-12-18T05:45:54;15.60;1.00
3976;DHT22;2002;48.812;9.180;2022-12-18T05:48:21;15.60;1.00
3976;DHT22;2002;48.812;9.180;2022-12-18T05:50:48;15.50;1.00
3976;DHT22;2002;48.812;9.180;2022-12-18T05:53:16;15.50;1.00
3976;DHT22;2002;48.812;9.180;2022-12-18T05:55:43;15.40;1.00
3976;DHT22;2002;48.812;9.180;2022-12-18T05:58:10;15.40;1.00
3976;DHT22;2002;48.812;9.180;2022-12-18T06:00:37;15.40;1.00
3976;DHT22;2002;48.812;9.180;2022-12-18T06:03:07;15.40;1.00
3976;DHT22;2002;48.812;9.180;2022-12-18T06:05:38;15.40;1.00
3976;DHT22;2002;48.812;9.180;2022-12-18T06:08:04;15.30;1.00
3976;DHT22;2002;48.812;9.180;2022-12-18T06:10:30;15.30;1.00
3976;DHT22;2002;48.812;9.180;2022-12-18T06:12:55;15.30;1.00
3976;DHT22;2002;48.812;9.180;2022-12-18T06:15:21;15.30;1.00
3976;DHT22;2002;48.812;9.180;2022-12-18T06:17:46;15.30;1.00
3976;DHT22;2002;48.812;9.180;2022-12-18T06:20:12;15.30;1.00
3976;DHT22;2002;48.812;9.180;2022-12-18T06:22:37;15.30;1.00
3976;DHT22;2002;48.812;9.180;2022-12-18T06:25:04;15.30;1.00
3976;DHT22;2002;48.812;9.180;2022-12-18T06:27:29;15.30;1.00
3976;DHT22;2002;48.812;9.180;2022-12-18T06:29:55;15.60;1.00
3976;DHT22;2002;48.812;9.180;2022-12-18T06:32:21;16.40;1.00
3976;DHT22;2002;48.812;9.180;2022-12-18T06:34:46;16.90;1.00
3976;DHT22;2002;48.812;9.180;2022-12-18T06:37:12;17.10;1.00
3976;DHT22;2002;48.812;9.180;2022-12-18T06:39:37;17.20;1.00
3976;DHT22;2002;48.812;9.180;2022-12-18T06:42:03;17.10;1.00
3976;DHT22;2002;48.812;9.180;2022-12-18T06:44:28;17.00;1.00
3976;DHT22;2002;48.812;9.180;2022-12-18T06:46:55;16.90;1.00
3976;DHT22;2002;48.812;9.180;2022-12-18T06:49:20;16.80;1.00
3976;DHT22;2002;48.812;9.180;2022-12-18T06:51:46;16.70;1.00
3976;DHT22;2002;48.812;9.180;2022-12-18T06:54:12;16.60;1.00
3976;DHT22;2002;48.812;9.180;2022-12-18T06:56:38;16.50;1.00
3976;DHT22;2002;48.812;9.180;2022-12-18T06:59:03;16.40;1.00
3976;DHT22;2002;48.812;9.180;2022-12-18T07:01:29;16.30;1.00
3976;DHT22;2002;48.812;9.180;2022-12-18T07:03:56;16.20;1.00
3976;DHT22;2002;48.812;9.180;2022-12-18T07:06:24;16.10;1.00
3976;DHT22;2002;48.812;9.180;2022-12-18T07:08:51;16.10;1.00
3976;DHT22;2002;48.812;9.180;2022-12-18T07:11:18;16.00;1.00
3976;DHT22;2002;48.812;9.180;2022-12-18T07:13:44;16.00;1.00
3976;DHT22;2002;48.812;9.180;2022-12-18T07:16:15;15.90;1.00
3976;DHT22;2002;48.812;9.180;2022-12-18T07:18:41;15.80;1.00
3976;DHT22;2002;48.812;9.180;2022-12-18T07:21:10;15.80;1.00
3976;DHT22;2002;48.812;9.180;2022-12-18T07:23:36;15.70;1.00
3976;DHT22;2002;48.812;9.180;2022-12-18T07:26:10;15.70;1.00
3976;DHT22;2002;48.812;9.180;2022-12-18T07:28:37;15.60;1.00
3976;DHT22;2002;48.812;9.180;2022-12-18T07:31:04;15.50;1.00
3976;DHT22;2002;48.812;9.180;2022-12-18T07:33:32;15.50;1.00
3976;DHT22;2002;48.812;9.180;2022-12-18T07:36:02;15.50;1.00
3976;DHT22;2002;48.812;9.180;2022-12-18T07:38:29;15.40;1.00
3976;DHT22;2002;48.812;9.180;2022-12-18T07:40:54;15.50;1.00
3976;DHT22;2002;48.812;9.180;2022-12-18T07:43:20;15.40;1.00
3976;DHT22;2002;48.812;9.180;2022-12-18T07:45:49;15.40;1.00
3976;DHT22;2002;48.812;9.180;2022-12-18T07:48:15;15.40;1.00
3976;DHT22;2002;48.812;9.180;2022-12-18T07:50:41;15.40;1.00
3976;DHT22;2002;48.812;9.180;2022-12-18T07:53:06;15.30;1.00
3976;DHT22;2002;48.812;9.180;2022-12-18T07:55:32;15.30;1.00
3976;DHT22;2002;48.812;9.180;2022-12-18T07:58:01;15.30;1.00
3976;DHT22;2002;48.812;9.180;2022-12-18T08:00:27;15.30;1.00
3976;DHT22;2002;48.812;9.180;2022-12-18T08:02:52;15.30;1.00
3976;DHT22;2002;48.812;9.180;2022-12-18T08:05:18;15.30;1.00
3976;DHT22;2002;48.812;9.180;2022-12-18T08:07:44;15.30;1.00
3976;DHT22;2002;48.812;9.180;2022-12-18T08:10:09;15.30;1.00
3976;DHT22;2002;48.812;9.180;2022-12-18T08:12:35;15.40;1.00
3976;DHT22;2002;48.812;9.180;2022-12-18T08:15:00;15.90;1.00
3976;DHT22;2002;48.812;9.180;2022-12-18T08:17:26;16.60;1.00
3976;DHT22;2002;48.812;9.180;2022-12-18T08:19:52;17.10;1.00
3976;DHT22;2002;48.812;9.180;2022-12-18T08:22:17;17.10;1.00
3976;DHT22;2002;48.812;9.180;2022-12-18T08:24:43;17.10;1.00
3976;DHT22;2002;48.812;9.180;2022-12-18T08:27:08;17.00;1.00
3976;DHT22;2002;48.812;9.180;2022-12-18T08:29:34;16.90;1.00
3976;DHT22;2002;48.812;9.180;2022-12-18T08:31:59;16.80;1.00
3976;DHT22;2002;48.812;9.180;2022-12-18T08:34:25;16.70;1.00
3976;DHT22;2002;48.812;9.180;2022-12-18T08:36:50;16.60;1.00
3976;DHT22;2002;48.812;9.180;2022-12-18T08:39:17;16.50;1.00
3976;DHT22;2002;48.812;9.180;2022-12-18T08:41:42;16.40;1.00
3976;DHT22;2002;48.812;9.180;2022-12-18T08:44:28;16.30;1.00
3976;DHT22;2002;48.812;9.180;2022-12-18T08:47:03;16.20;1.00
3976;DHT22;2002;48.812;9.180;2022-12-18T08:49:28;16.10;1.00
3976;DHT22;2002;48.812;9.180;2022-12-18T08:51:55;16.10;1.00
3976;DHT22;2002;48.812;9.180;2022-12-18T08:54:22;16.00;1.00
3976;DHT22;2002;48.812;9.180;2022-12-18T08:56:48;16.00;1.00
3976;DHT22;2002;48.812;9.180;2022-12-18T08:59:15;15.90;1.00
3976;DHT22;2002;48.812;9.180;2022-12-18T09:01:41;15.80;1.00
3976;DHT22;2002;48.812;9.180;2022-12-18T09:04:08;15.80;1.00
3976;DHT22;2002;48.812;9.180;2022-12-18T09:06:34;15.70;1.00
3976;DHT22;2002;48.812;9.180;2022-12-18T09:08:59;15.60;1.00
3976;DHT22;2002;48.812;9.180;2022-12-18T09:11:27;15.60;1.00
3976;DHT22;2002;48.812;9.180;2022-12-18T09:13:54;15.50;1.00
3976;DHT22;2002;48.812;9.180;2022-12-18T09:16:20;15.50;1.00
3976;DHT22;2002;48.812;9.180;2022-12-18T09:18:47;15.50;1.00
3976;DHT22;2002;48.812;9.180;2022-12-18T09:21:20;15.40;1.00
3976;DHT22;2002;48.812;9.180;2022-12-18T09:23:50;15.40;1.00
3976;DHT22;2002;48.812;9.180;2022-12-18T09:26:15;15.40;1.00
3976;DHT22;2002;48.812;9.180;2022-12-18T09:28:41;15.40;1.00
3976;DHT22;2002;48.812;9.180;2022-12-18T09:31:08;15.30;1.00
3976;DHT22;2002;48.812;9.180;2022-12-18T09:33:37;15.30;1.00
3976;DHT22;2002;48.812;9.180;2022-12-18T09:36:05;15.30;1.00
3976;DHT22;2002;48.812;9.180;2022-12-18T09:38:32;15.30;1.00
3976;DHT22;2002;48.812;9.180;2022-12-18T09:41:06;15.30;1.00
3976;DHT22;2002;48.812;9.180;2022-12-18T09:43:49;15.30;1.00
3976;DHT22;2002;48.812;9.180;2022-12-18T09:46:24;15.30;1.00
3976;DHT22;2002;48.812;9.180;2022-12-18T09:48:54;15.30;1.00
3976;DHT22;2002;48.812;9.180;2022-12-18T09:51:24;15.30;1.00
3976;DHT22;2002;48.812;9.180;2022-12-18T09:53:57;15.30;1.00
3976;DHT22;2002;48.812;9.180;2022-12-18T09:56:27;15.40;1.00
3976;DHT22;2002;48.812;9.180;2022-12-18T09:58:58;15.80;1.00
3976;DHT22;2002;48.812;9.180;2022-12-18T10:01:25;16.50;1.00
3976;DHT22;2002;48.812;9.180;2022-12-18T10:03:52;17.00;1.00
3976;DHT22;2002;48.812;9.180;2022-12-18T10:06:23;17.10;1.00
3976;DHT22;2002;48.812;9.180;2022-12-18T10:11:48;17.00;1.00
3976;DHT22;2002;48.812;9.180;2022-12-18T10:14:34;17.00;1.00
3976;DHT22;2002;48.812;9.180;2022-12-18T10:19:59;16.70;1.00
3976;DHT22;2002;48.812;9.180;2022-12-18T10:25:25;16.40;1.00
3976;DHT22;2002;48.812;9.180;2022-12-18T10:27:58;16.30;1.00
3976;DHT22;2002;48.812;9.180;2022-12-18T10:30:26;16.20;1.00
3976;DHT22;2002;48.812;9.180;2022-12-18T10:32:52;16.20;1.00
3976;DHT22;2002;48.812;9.180;2022-12-18T10:35:23;16.10;1.00
3976;DHT22;2002;48.812;9.180;2022-12-18T10:38:20;16.00;1.00
3976;DHT22;2002;48.812;9.180;2022-12-18T10:43:39;15.80;1.00
3976;DHT22;2002;48.812;9.180;2022-12-18T10:48:52;15.70;1.00
3976;DHT22;2002;48.812;9.180;2022-12-18T10:51:28;15.70;1.00
3976;DHT22;2002;48.812;9.180;2022-12-18T10:54:04;15.60;1.00
3976;DHT22;2002;48.812;9.180;2022-12-18T10:56:32;15.60;1.00
3976;DHT22;2002;48.812;9.180;2022-12-18T10:59:04;15.50;1.00
3976;DHT22;2002;48.812;9.180;2022-12-18T11:01:52;15.50;1.00
3976;DHT22;2002;48.812;9.180;2022-12-18T11:04:29;15.40;1.00
3976;DHT22;2002;48.812;9.180;2022-12-18T11:07:06;15.40;1.00
3976;DHT22;2002;48.812;9.180;2022-12-18T11:09:37;15.40;1.00
3976;DHT22;2002;48.812;9.180;2022-12-18T11:12:08;15.40;1.00
3976;DHT22;2002;48.812;9.180;2022-12-18T11:14:43;15.40;1.00
3976;DHT22;2002;48.812;9.180;2022-12-18T11:19:56;15.30;1.00
3976;DHT22;2002;48.812;9.180;2022-12-18T11:22:30;15.30;1.00
3976;DHT22;2002;48.812;9.180;2022-12-18T11:25:00;15.30;1.00
3976;DHT22;2002;48.812;9.180;2022-12-18T11:27:26;15.30;1.00
3976;DHT22;2002;48.812;9.180;2022-12-18T11:30:08;15.20;1.00
3976;DHT22;2002;48.812;9.180;2022-12-18T11:32:43;15.20;1.00
3976;DHT22;2002;48.812;9.180;2022-12-18T11:41:00;15.30;1.00
3976;DHT22;2002;48.812;9.180;2022-12-18T11:43:38;16.00;1.00
3976;DHT22;2002;48.812;9.180;2022-12-18T11:46:18;16.50;1.00
3976;DHT22;2002;48.812;9.180;2022-12-18T11:48:58;16.90;1.00
3976;DHT22;2002;48.812;9.180;2022-12-18T11:51:41;17.10;1.00
3976;DHT22;2002;48.812;9.180;2022-12-18T11:54:12;17.00;1.00
3976;DHT22;2002;48.812;9.180;2022-12-18T11:56:53;17.00;1.00
3976;DHT22;2002;48.812;9.180;2022-12-18T12:10:51;16.40;1.00
3976;DHT22;2002;48.812;9.180;2022-12-18T12:13:43;16.30;1.00
3976;DHT22;2002;48.812;9.180;2022-12-18T12:16:26;16.20;1.00
3976;DHT22;2002;48.812;9.180;2022-12-18T12:21:35;16.10;1.00
3976;DHT22;2002;48.812;9.180;2022-12-18T12:24:23;16.00;1.00
3976;DHT22;2002;48.812;9.180;2022-12-18T12:32:45;15.70;1.00
3976;DHT22;2002;48.812;9.180;2022-12-18T12:35:44;15.70;1.00
3976;DHT22;2002;48.812;9.180;2022-12-18T12:38:26;15.60;1.00
3976;DHT22;2002;48.812;9.180;2022-12-18T12:41:02;15.60;1.00
3976;DHT22;2002;48.812;9.180;2022-12-18T12:46:05;15.50;1.00
3976;DHT22;2002;48.812;9.180;2022-12-18T12:48:42;15.40;1.00
3976;DHT22;2002;48.812;9.180;2022-12-18T12:53:43;15.40;1.00
3976;DHT22;2002;48.812;9.180;2022-12-18T12:56:11;15.40;1.00
3976;DHT22;2002;48.812;9.180;2022-12-18T13:08:58;15.20;1.00
3976;DHT22;2002;48.812;9.180;2022-12-18T13:11:39;15.20;1.00
3976;DHT22;2002;48.812;9.180;2022-12-18T13:14:28;15.20;1.00
3976;DHT22;2002;48.812;9.180;2022-12-18T13:17:30;15.20;1.00
3976;DHT22;2002;48.812;9.180;2022-12-18T13:20:09;15.20;1.00
3976;DHT22;2002;48.812;9.180;2022-12-18T13:22:38;15.30;1.00
3976;DHT22;2002;48.812;9.180;2022-12-18T13:25:34;15.80;1.00
3976;DHT22;2002;48.812;9.180;2022-12-18T13:28:07;16.40;1.00
3976;DHT22;2002;48.812;9.180;2022-12-18T13:43:46;16.70;1.00
3976;DHT22;2002;48.812;9.180;2022-12-18T13:46:43;16.70;1.00
3976;DHT22;2002;48.812;9.180;2022-12-18T13:51:41;16.40;1.00
3976;DHT22;2002;48.812;9.180;2022-12-18T13:57:33;16.20;1.00
3976;DHT22;2002;48.812;9.180;2022-12-18T14:00:24;16.00;1.00
3976;DHT22;2002;48.812;9.180;2022-12-18T14:02:51;16.00;1.00
3976;DHT22;2002;48.812;9.180;2022-12-18T14:05:27;15.90;1.00
3976;DHT22;2002;48.812;9.180;2022-12-18T14:07:54;15.90;1.00
3976;DHT22;2002;48.812;9.180;2022-12-18T14:10:20;15.80;1.00
3976;DHT22;2002;48.812;9.180;2022-12-18T14:12:48;15.80;1.00
3976;DHT22;2002;48.812;9.180;2022-12-18T14:20:34;15.50;1.00
3976;DHT22;2002;48.812;9.180;2022-12-18T14:23:00;15.50;1.00
3976;DHT22;2002;48.812;9.180;2022-12-18T14:25:28;15.50;1.00
3976;DHT22;2002;48.812;9.180;2022-12-18T14:30:37;15.40;1.00
3976;DHT22;2002;48.812;9.180;2022-12-18T14:33:22;15.30;1.00
3976;DHT22;2002;48.812;9.180;2022-12-18T14:36:03;15.30;1.00
3976;DHT22;2002;48.812;9.180;2022-12-18T14:38:36;15.30;1.00
3976;DHT22;2002;48.812;9.180;2022-12-18T14:41:12;15.20;1.00
3976;DHT22;2002;48.812;9.180;2022-12-18T14:43:40;15.20;1.00
3976;DHT22;2002;48.812;9.180;2022-12-18T14:48:55;15.20;1.00
3976;DHT22;2002;48.812;9.180;2022-12-18T14:51:23;15.20;1.00
3976;DHT22;2002;48.812;9.180;2022-12-18T14:53:54;15.10;1.00
3976;DHT22;2002;48.812;9.180;2022-12-18T14:56:34;15.20;1.00
3976;DHT22;2002;48.812;9.180;2022-12-18T14:59:13;15.10;1.00
3976;DHT22;2002;48.812;9.180;2022-12-18T15:02:14;15.40;1.00
3976;DHT22;2002;48.812;9.180;2022-12-18T15:04:43;16.10;1.00
3976;DHT22;2002;48.812;9.180;2022-12-18T15:07:19;16.50;1.00
3976;DHT22;2002;48.812;9.180;2022-12-18T15:20:33;16.70;1.00
3976;DHT22;2002;48.812;9.180;2022-12-18T15:23:04;16.60;1.00
3976;DHT22;2002;48.812;9.180;2022-12-18T15:25:35;16.50;1.00
3976;DHT22;2002;48.812;9.180;2022-12-18T15:28:03;16.40;1.00
3976;DHT22;2002;48.812;9.180;2022-12-18T15:30:29;16.30;1.00
3976;DHT22;2002;48.812;9.180;2022-12-18T15:33:31;16.30;1.00
3976;DHT22;2002;48.812;9.180;2022-12-18T15:36:07;16.20;1.00
3976;DHT22;2002;48.812;9.180;2022-12-18T15:38:33;16.10;1.00
3976;DHT22;2002;48.812;9.180;2022-12-18T15:40:59;16.10;1.00
3976;DHT22;2002;48.812;9.180;2022-12-18T15:43:25;15.90;1.00
3976;DHT22;2002;48.812;9.180;2022-12-18T15:46:11;15.90;1.00
3976;DHT22;2002;48.812;9.180;2022-12-18T15:48:42;15.80;1.00
3976;DHT22;2002;48.812;9.180;2022-12-18T15:51:16;15.70;1.00
3976;DHT22;2002;48.812;9.180;2022-12-18T15:53:43;15.70;1.00
3976;DHT22;2002;48.812;9.180;2022-12-18T15:56:11;15.60;1.00
3976;DHT22;2002;48.812;9.180;2022-12-18T15:58:56;15.60;1.00
3976;DHT22;2002;48.812;9.180;2022-12-18T16:01:23;15.50;1.00
3976;DHT22;2002;48.812;9.180;2022-12-18T16:03:50;15.50;1.00
3976;DHT22;2002;48.812;9.180;2022-12-18T16:06:16;15.40;1.00
3976;DHT22;2002;48.812;9.180;2022-12-18T16:08:41;15.40;1.00
3976;DHT22;2002;48.812;9.180;2022-12-18T16:11:23;15.40;1.00
3976;DHT22;2002;48.812;9.180;2022-12-18T16:16:39;15.40;1.00
3976;DHT22;2002;48.812;9.180;2022-12-18T16:19:04;15.30;1.00
3976;DHT22;2002;48.812;9.180;2022-12-18T16:21:30;15.30;1.00
3976;DHT22;2002;48.812;9.180;2022-12-18T16:23:55;15.40;1.00
3976;DHT22;2002;48.812;9.180;2022-12-18T16:26:21;15.40;1.00
3976;DHT22;2002;48.812;9.180;2022-12-18T16:28:46;15.30;1.00
3976;DHT22;2002;48.812;9.180;2022-12-18T16:31:12;15.30;1.00
3976;DHT22;2002;48.812;9.180;2022-12-18T16:33:37;15.30;1.00
3976;DHT22;2002;48.812;9.180;2022-12-18T16:36:03;15.30;1.00
3976;DHT22;2002;48.812;9.180;2022-12-18T16:38:29;15.30;1.00
3976;DHT22;2002;48.812;9.180;2022-12-18T16:40:54;15.40;1.00
3976;DHT22;2002;48.812;9.180;2022-12-18T16:43:38;16.10;1.00
3976;DHT22;2002;48.812;9.180;2022-12-18T16:46:04;16.80;1.00
3976;DHT22;2002;48.812;9.180;2022-12-18T16:48:29;17.10;1.00
3976;DHT22;2002;48.812;9.180;2022-12-18T16:51:03;17.20;1.00
3976;DHT22;2002;48.812;9.180;2022-12-18T16:53:29;17.20;1.00
3976;DHT22;2002;48.812;9.180;2022-12-18T16:55:55;17.10;1.00
3976;DHT22;2002;48.812;9.180;2022-12-18T16:58:22;17.00;1.00
3976;DHT22;2002;48.812;9.180;2022-12-18T17:00:47;16.80;1.00
3976;DHT22;2002;48.812;9.180;2022-12-18T17:03:13;16.80;1.00
3976;DHT22;2002;48.812;9.180;2022-12-18T17:05:39;16.70;1.00
3976;DHT22;2002;48.812;9.180;2022-12-18T17:08:05;16.50;1.00
3976;DHT22;2002;48.812;9.180;2022-12-18T17:10:31;16.40;1.00
3976;DHT22;2002;48.812;9.180;2022-12-18T17:12:59;16.40;1.00
3976;DHT22;2002;48.812;9.180;2022-12-18T17:15:25;16.30;1.00
3976;DHT22;2002;48.812;9.180;2022-12-18T17:17:50;16.20;1.00
3976;DHT22;2002;48.812;9.180;2022-12-18T17:20:16;16.10;1.00
3976;DHT22;2002;48.812;9.180;2022-12-18T17:22:42;16.00;1.00
3976;DHT22;2002;48.812;9.180;2022-12-18T17:25:07;16.00;1.00
3976;DHT22;2002;48.812;9.180;2022-12-18T17:27:33;15.90;1.00
3976;DHT22;2002;48.812;9.180;2022-12-18T17:29:58;15.90;1.00
3976;DHT22;2002;48.812;9.180;2022-12-18T17:32:24;15.80;1.00
3976;DHT22;2002;48.812;9.180;2022-12-18T17:34:49;15.70;1.00
3976;DHT22;2002;48.812;9.180;2022-12-18T17:37:15;15.70;1.00
3976;DHT22;2002;48.812;9.180;2022-12-18T17:39:41;15.60;1.00
3976;DHT22;2002;48.812;9.180;2022-12-18T17:42:06;15.60;1.00
3976;DHT22;2002;48.812;9.180;2022-12-18T17:44:34;15.50;1.00
3976;DHT22;2002;48.812;9.180;2022-12-18T17:47:00;15.50;1.00
3976;DHT22;2002;48.812;9.180;2022-12-18T17:49:26;15.40;1.00
3976;DHT22;2002;48.812;9.180;2022-12-18T17:51:51;15.40;1.00
3976;DHT22;2002;48.812;9.180;2022-12-18T17:54:18;15.40;1.00
3976;DHT22;2002;48.812;9.180;2022-12-18T17:56:43;15.40;1.00
3976;DHT22;2002;48.812;9.180;2022-12-18T17:59:09;15.40;1.00
3976;DHT22;2002;48.812;9.180;2022-12-18T18:01:34;15.30;1.00
3976;DHT22;2002;48.812;9.180;2022-12-18T18:04:00;15.30;1.00
3976;DHT22;2002;48.812;9.180;2022-12-18T18:06:26;15.30;1.00
3976;DHT22;2002;48.812;9.180;2022-12-18T18:08:52;15.30;1.00
3976;DHT22;2002;48.812;9.180;2022-12-18T18:11:20;15.30;1.00
3976;DHT22;2002;48.812;9.180;2022-12-18T18:14:11;15.30;1.00
3976;DHT22;2002;48.812;9.180;2022-12-18T18:16:40;15.30;1.00
3976;DHT22;2002;48.812;9.180;2022-12-18T18:19:09;15.30;1.00
3976;DHT22;2002;48.812;9.180;2022-12-18T18:21:38;15.30;1.00
3976;DHT22;2002;48.812;9.180;2022-12-18T18:24:04;15.60;1.00
3976;DHT22;2002;48.812;9.180;2022-12-18T18:26:32;16.30;1.00
3976;DHT22;2002;48.812;9.180;2022-12-18T18:28:59;16.80;1.00
3976;DHT22;2002;48.812;9.180;2022-12-18T18:31:26;17.00;1.00
3976;DHT22;2002;48.812;9.180;2022-12-18T18:33:52;17.10;1.00
3976;DHT22;2002;48.812;9.180;2022-12-18T18:36:17;17.00;1.00
3976;DHT22;2002;48.812;9.180;2022-12-18T18:38:43;16.90;1.00
3976;DHT22;2002;48.812;9.180;2022-12-18T18:41:09;16.80;1.00
3976;DHT22;2002;48.812;9.180;2022-12-18T18:43:35;16.70;1.00
3976;DHT22;2002;48.812;9.180;2022-12-18T18:46:03;16.60;1.00
3976;DHT22;2002;48.812;9.180;2022-12-18T18:48:32;16.50;1.00